NJE920 LFMN-LFRB
Flight info
| Callsign | NJE920 |
|---|---|
| Flight time | 1h 45m |
| Altitude | 31000 |
| Route | TURIL DCT PADKO/N0455F400 DCT SALIN DCT FJR DCT GAI DCT SECHE DCT UVELI DCT CNA DCT MANAK UY110 NTS/N0390F180 R66 LENSU V30 ROSPO |
| Aircraft | CL60/M-SBDE1E2E3FGHIJ4J5J7M3RWXYZ/LB1V1D1 |
Departure
| Time | 2026-04-16 10:43 |
|---|---|
| Airport | Nice-Côte d'Azur Airport (LFMN) |
Arrival
| Time | 2026-04-16 12:28 |
|---|---|
| Airport | Brest Bretagne airport (LFRB) |
| Time | Latitude | Longitude | Altitude | Speed | Heading |
|---|---|---|---|---|---|
| 2026-04-16 10:35 | 43.66827 | 7.22222 | 28 ft | 0 kts | 313° |
| 2026-04-16 10:38 | 43.66831 | 7.22218 | 28 ft | 2 kts | 341° |
| 2026-04-16 10:38 | 43.66840 | 7.22245 | 28 ft | 5 kts | 129° |
| 2026-04-16 10:38 | 43.66807 | 7.22300 | 28 ft | 8 kts | 110° |
| 2026-04-16 10:39 | 43.66817 | 7.22333 | 27 ft | 0 kts | 56° |
| 2026-04-16 10:39 | 43.66817 | 7.22389 | 27 ft | 9 kts | 123° |
| 2026-04-16 10:39 | 43.66781 | 7.22442 | 27 ft | 8 kts | 134° |
| 2026-04-16 10:39 | 43.66730 | 7.22512 | 27 ft | 11 kts | 134° |
| 2026-04-16 10:40 | 43.66685 | 7.22577 | 27 ft | 4 kts | 135° |
| 2026-04-16 10:40 | 43.66676 | 7.22589 | 27 ft | 4 kts | 135° |
| 2026-04-16 10:40 | 43.66643 | 7.22633 | 26 ft | 9 kts | 135° |
| 2026-04-16 10:40 | 43.66588 | 7.22705 | 26 ft | 10 kts | 133° |
| 2026-04-16 10:41 | 43.66526 | 7.22765 | 26 ft | 10 kts | 182° |
| 2026-04-16 10:41 | 43.66474 | 7.22723 | 26 ft | 0 kts | 225° |
| 2026-04-16 10:42 | 43.66473 | 7.22721 | 26 ft | 0 kts | 225° |
| 2026-04-16 10:42 | 43.66458 | 7.22700 | 26 ft | 21 kts | 225° |
| 2026-04-16 10:42 | 43.66089 | 7.22189 | 26 ft | 125 kts | 224° |
| 2026-04-16 10:42 | 43.65326 | 7.21152 | 433 ft | 169 kts | 221° |
| 2026-04-16 10:43 | 43.64438 | 7.19997 | 1283 ft | 188 kts | 224° |
| 2026-04-16 10:43 | 43.63483 | 7.18661 | 2099 ft | 210 kts | 224° |
| 2026-04-16 10:43 | 43.62400 | 7.17157 | 2700 ft | 232 kts | 224° |
| 2026-04-16 10:43 | 43.61073 | 7.15932 | 3232 ft | 235 kts | 199° |
| 2026-04-16 10:44 | 43.59451 | 7.15742 | 3796 ft | 236 kts | 167° |
| 2026-04-16 10:44 | 43.57918 | 7.16684 | 4435 ft | 257 kts | 148° |
| 2026-04-16 10:44 | 43.56380 | 7.17932 | 5639 ft | 265 kts | 148° |
| 2026-04-16 10:44 | 43.54932 | 7.19473 | 6941 ft | 268 kts | 131° |
| 2026-04-16 10:45 | 43.53708 | 7.21359 | 8193 ft | 273 kts | 129° |
| 2026-04-16 10:45 | 43.52455 | 7.23303 | 9430 ft | 277 kts | 130° |
| 2026-04-16 10:45 | 43.51181 | 7.25270 | 10610 ft | 283 kts | 129° |
| 2026-04-16 10:45 | 43.49712 | 7.27068 | 11701 ft | 291 kts | 146° |
| 2026-04-16 10:46 | 43.47846 | 7.28121 | 12781 ft | 299 kts | 168° |
| 2026-04-16 10:46 | 43.45763 | 7.28149 | 13828 ft | 307 kts | 192° |
| 2026-04-16 10:46 | 43.43813 | 7.26957 | 14743 ft | 314 kts | 218° |
| 2026-04-16 10:46 | 43.42128 | 7.24991 | 15543 ft | 325 kts | 223° |
| 2026-04-16 10:47 | 43.40418 | 7.22934 | 16483 ft | 331 kts | 223° |
| 2026-04-16 10:47 | 43.38683 | 7.20859 | 17345 ft | 336 kts | 223° |
| 2026-04-16 10:47 | 43.36921 | 7.18754 | 18221 ft | 341 kts | 223° |
| 2026-04-16 10:47 | 43.35139 | 7.16627 | 19069 ft | 345 kts | 223° |
| 2026-04-16 10:48 | 43.33324 | 7.14464 | 19895 ft | 349 kts | 223° |
| 2026-04-16 10:48 | 43.31485 | 7.12274 | 20668 ft | 355 kts | 223° |
| 2026-04-16 10:48 | 43.29619 | 7.10054 | 21421 ft | 358 kts | 223° |
| 2026-04-16 10:48 | 43.27716 | 7.07794 | 22180 ft | 362 kts | 223° |
| 2026-04-16 10:49 | 43.25816 | 7.05538 | 22882 ft | 365 kts | 223° |
| 2026-04-16 10:49 | 43.23907 | 7.03274 | 23576 ft | 369 kts | 223° |
| 2026-04-16 10:49 | 43.21947 | 7.00952 | 24286 ft | 374 kts | 223° |
| 2026-04-16 10:49 | 43.20131 | 6.98465 | 25028 ft | 373 kts | 236° |
| 2026-04-16 10:50 | 43.18879 | 6.95366 | 25769 ft | 370 kts | 253° |
| 2026-04-16 10:50 | 43.18383 | 6.91982 | 26459 ft | 366 kts | 271° |
| 2026-04-16 10:50 | 43.18595 | 6.88528 | 27114 ft | 366 kts | 282° |
| 2026-04-16 10:50 | 43.19011 | 6.85104 | 27715 ft | 370 kts | 282° |
| 2026-04-16 10:51 | 43.19427 | 6.81613 | 28342 ft | 373 kts | 282° |
| 2026-04-16 10:51 | 43.19846 | 6.78082 | 28977 ft | 375 kts | 282° |
| 2026-04-16 10:51 | 43.20264 | 6.74542 | 29550 ft | 378 kts | 282° |
| 2026-04-16 10:51 | 43.20686 | 6.70969 | 30135 ft | 381 kts | 282° |
| 2026-04-16 10:52 | 43.21106 | 6.67393 | 30667 ft | 383 kts | 282° |
| 2026-04-16 10:52 | 43.21532 | 6.63757 | 31136 ft | 387 kts | 282° |
| 2026-04-16 10:52 | 43.21934 | 6.60063 | 31596 ft | 391 kts | 278° |
| 2026-04-16 10:52 | 43.22045 | 6.56262 | 32015 ft | 395 kts | 274° |
| 2026-04-16 10:53 | 43.22094 | 6.52473 | 32432 ft | 398 kts | 274° |
| 2026-04-16 10:53 | 43.22145 | 6.48643 | 32849 ft | 400 kts | 274° |
| 2026-04-16 10:53 | 43.22195 | 6.44875 | 33400 ft | 398 kts | 274° |
| 2026-04-16 10:53 | 43.22245 | 6.41064 | 34010 ft | 394 kts | 274° |
| 2026-04-16 10:54 | 43.22291 | 6.37340 | 34549 ft | 391 kts | 274° |
| 2026-04-16 10:54 | 43.22337 | 6.33569 | 34954 ft | 390 kts | 273° |
| 2026-04-16 10:54 | 43.22381 | 6.29899 | 35309 ft | 390 kts | 273° |
| 2026-04-16 10:54 | 43.22425 | 6.26180 | 35653 ft | 390 kts | 273° |
| 2026-04-16 10:55 | 43.22468 | 6.22466 | 35985 ft | 390 kts | 273° |
| 2026-04-16 10:55 | 43.22510 | 6.18728 | 36289 ft | 390 kts | 274° |
| 2026-04-16 10:55 | 43.22551 | 6.15055 | 36650 ft | 390 kts | 274° |
| 2026-04-16 10:55 | 43.22590 | 6.11325 | 37039 ft | 390 kts | 274° |
| 2026-04-16 10:56 | 43.22629 | 6.07651 | 37388 ft | 390 kts | 274° |
| 2026-04-16 10:56 | 43.22666 | 6.03911 | 37723 ft | 390 kts | 274° |
| 2026-04-16 10:56 | 43.22704 | 6.00173 | 38040 ft | 390 kts | 274° |
| 2026-04-16 10:56 | 43.22739 | 5.96499 | 38340 ft | 390 kts | 274° |
| 2026-04-16 10:57 | 43.22774 | 5.92739 | 38663 ft | 390 kts | 274° |
| 2026-04-16 10:57 | 43.22807 | 5.89029 | 38930 ft | 390 kts | 274° |
| 2026-04-16 10:57 | 43.22839 | 5.85327 | 39170 ft | 390 kts | 274° |
| 2026-04-16 10:57 | 43.22870 | 5.81648 | 39412 ft | 390 kts | 274° |
| 2026-04-16 10:58 | 43.22901 | 5.77904 | 39637 ft | 390 kts | 274° |
| 2026-04-16 10:58 | 43.22929 | 5.74231 | 39859 ft | 389 kts | 274° |
| 2026-04-16 10:58 | 43.22957 | 5.70514 | 40048 ft | 389 kts | 274° |
| 2026-04-16 10:58 | 43.22983 | 5.66821 | 40216 ft | 388 kts | 274° |
| 2026-04-16 10:59 | 43.23008 | 5.63124 | 40370 ft | 388 kts | 274° |
| 2026-04-16 10:59 | 43.23032 | 5.59431 | 40517 ft | 388 kts | 274° |
| 2026-04-16 10:59 | 43.23054 | 5.55769 | 40648 ft | 388 kts | 274° |
| 2026-04-16 10:59 | 43.23076 | 5.52060 | 40778 ft | 389 kts | 274° |
| 2026-04-16 11:00 | 43.23097 | 5.48355 | 40898 ft | 389 kts | 274° |
| 2026-04-16 11:00 | 43.23116 | 5.44662 | 41026 ft | 389 kts | 274° |
| 2026-04-16 11:00 | 43.23152 | 5.37191 | 41112 ft | 394 kts | 274° |
| 2026-04-16 11:01 | 43.23439 | 5.29714 | 41122 ft | 397 kts | 280° |
| 2026-04-16 11:01 | 43.24112 | 5.22152 | 41123 ft | 403 kts | 280° |
| 2026-04-16 11:02 | 43.24782 | 5.14474 | 41124 ft | 409 kts | 280° |
| 2026-04-16 11:02 | 43.25452 | 5.06709 | 41130 ft | 414 kts | 279° |
| 2026-04-16 11:03 | 43.26126 | 4.98820 | 41128 ft | 419 kts | 279° |
| 2026-04-16 11:04 | 43.27134 | 4.86867 | 41126 ft | 425 kts | 280° |
| 2026-04-16 11:04 | 43.27807 | 4.78799 | 41135 ft | 429 kts | 280° |
| 2026-04-16 11:05 | 43.29253 | 4.70943 | 41140 ft | 425 kts | 295° |
| 2026-04-16 11:05 | 43.31950 | 4.63743 | 41131 ft | 426 kts | 301° |
| 2026-04-16 11:06 | 43.34784 | 4.56566 | 41134 ft | 428 kts | 301° |
| 2026-04-16 11:06 | 43.37630 | 4.49338 | 41134 ft | 430 kts | 301° |
| 2026-04-16 11:07 | 43.40469 | 4.42111 | 41133 ft | 431 kts | 301° |
| 2026-04-16 11:07 | 43.43296 | 4.34895 | 41138 ft | 432 kts | 300° |
| 2026-04-16 11:08 | 43.46135 | 4.27628 | 41145 ft | 433 kts | 300° |
| 2026-04-16 11:08 | 43.48990 | 4.20301 | 41146 ft | 433 kts | 300° |
| 2026-04-16 11:09 | 43.51829 | 4.12997 | 41156 ft | 432 kts | 300° |
| 2026-04-16 11:09 | 43.54638 | 4.05751 | 41147 ft | 431 kts | 300° |
| 2026-04-16 11:10 | 43.57398 | 3.98426 | 41156 ft | 432 kts | 296° |
| 2026-04-16 11:10 | 43.59149 | 3.90418 | 41153 ft | 436 kts | 287° |
| 2026-04-16 11:11 | 43.60634 | 3.82340 | 41154 ft | 436 kts | 287° |
| 2026-04-16 11:11 | 43.62118 | 3.74240 | 41170 ft | 435 kts | 287° |
| 2026-04-16 11:12 | 43.63591 | 3.66162 | 41158 ft | 435 kts | 287° |
| 2026-04-16 11:12 | 43.65074 | 3.58003 | 41169 ft | 435 kts | 287° |
| 2026-04-16 11:13 | 43.66530 | 3.49952 | 41175 ft | 434 kts | 287° |
| 2026-04-16 11:13 | 43.67992 | 3.41833 | 41183 ft | 433 kts | 287° |
| 2026-04-16 11:14 | 43.69283 | 3.34634 | 41187 ft | 434 kts | 286° |
| 2026-04-16 11:14 | 43.70729 | 3.26536 | 41183 ft | 434 kts | 286° |
| 2026-04-16 11:15 | 43.72162 | 3.18477 | 41195 ft | 434 kts | 286° |
| 2026-04-16 11:15 | 43.73585 | 3.10441 | 41198 ft | 433 kts | 286° |
| 2026-04-16 11:16 | 43.75015 | 3.02325 | 41200 ft | 433 kts | 286° |
| 2026-04-16 11:16 | 43.76428 | 2.94272 | 41198 ft | 432 kts | 286° |
| 2026-04-16 11:17 | 43.77834 | 2.86220 | 41198 ft | 432 kts | 286° |
| 2026-04-16 11:17 | 43.79234 | 2.78168 | 41206 ft | 431 kts | 286° |
| 2026-04-16 11:18 | 43.80633 | 2.70085 | 41201 ft | 432 kts | 285° |
| 2026-04-16 11:18 | 43.82021 | 2.62033 | 41198 ft | 432 kts | 285° |
| 2026-04-16 11:19 | 43.83404 | 2.53970 | 41194 ft | 432 kts | 285° |
| 2026-04-16 11:19 | 43.84774 | 2.45945 | 41194 ft | 431 kts | 285° |
| 2026-04-16 11:20 | 43.86144 | 2.37885 | 41196 ft | 430 kts | 285° |
| 2026-04-16 11:20 | 43.87506 | 2.29837 | 41201 ft | 430 kts | 285° |
| 2026-04-16 11:21 | 43.88862 | 2.21784 | 41199 ft | 430 kts | 284° |
| 2026-04-16 11:21 | 43.90214 | 2.13718 | 41203 ft | 430 kts | 284° |
| 2026-04-16 11:22 | 43.91557 | 2.05671 | 41207 ft | 431 kts | 284° |
| 2026-04-16 11:22 | 43.92904 | 1.97559 | 41207 ft | 431 kts | 284° |
| 2026-04-16 11:23 | 43.94239 | 1.89481 | 41212 ft | 431 kts | 284° |
| 2026-04-16 11:23 | 43.95836 | 1.81512 | 41206 ft | 428 kts | 294° |
| 2026-04-16 11:24 | 43.98506 | 1.74213 | 41210 ft | 427 kts | 298° |
| 2026-04-16 11:24 | 44.01213 | 1.67036 | 41215 ft | 427 kts | 298° |
| 2026-04-16 11:25 | 44.03809 | 1.60136 | 41220 ft | 427 kts | 298° |
| 2026-04-16 11:25 | 44.06551 | 1.52831 | 41217 ft | 427 kts | 298° |
| 2026-04-16 11:26 | 44.09285 | 1.45529 | 41214 ft | 427 kts | 298° |
| 2026-04-16 11:26 | 44.12034 | 1.38166 | 41215 ft | 427 kts | 298° |
| 2026-04-16 11:27 | 44.14753 | 1.30863 | 41221 ft | 427 kts | 297° |
| 2026-04-16 11:27 | 44.17473 | 1.23541 | 41225 ft | 426 kts | 297° |
| 2026-04-16 11:28 | 44.20205 | 1.16166 | 41228 ft | 426 kts | 297° |
| 2026-04-16 11:28 | 44.22915 | 1.08833 | 41223 ft | 426 kts | 297° |
| 2026-04-16 11:29 | 44.25613 | 1.01509 | 41219 ft | 426 kts | 297° |
| 2026-04-16 11:29 | 44.28336 | 0.94102 | 41209 ft | 426 kts | 297° |
| 2026-04-16 11:30 | 44.31033 | 0.86745 | 41203 ft | 426 kts | 297° |
| 2026-04-16 11:30 | 44.33707 | 0.79431 | 41206 ft | 425 kts | 297° |
| 2026-04-16 11:31 | 44.36403 | 0.72035 | 41204 ft | 425 kts | 297° |
| 2026-04-16 11:31 | 44.39074 | 0.64691 | 41207 ft | 426 kts | 297° |
| 2026-04-16 11:32 | 44.41969 | 0.57456 | 41203 ft | 426 kts | 305° |
| 2026-04-16 11:32 | 44.45955 | 0.51341 | 41207 ft | 428 kts | 319° |
| 2026-04-16 11:33 | 44.50957 | 0.46822 | 41208 ft | 430 kts | 332° |
| 2026-04-16 11:33 | 44.56382 | 0.43213 | 41207 ft | 431 kts | 333° |
| 2026-04-16 11:34 | 44.61789 | 0.39610 | 41209 ft | 431 kts | 333° |
| 2026-04-16 11:34 | 44.67195 | 0.36002 | 41218 ft | 431 kts | 333° |
| 2026-04-16 11:35 | 44.72609 | 0.32382 | 41220 ft | 432 kts | 332° |
| 2026-04-16 11:35 | 44.78019 | 0.28758 | 41218 ft | 432 kts | 332° |
| 2026-04-16 11:36 | 44.83449 | 0.25114 | 41219 ft | 432 kts | 332° |
| 2026-04-16 11:36 | 44.88890 | 0.21455 | 41217 ft | 432 kts | 332° |
| 2026-04-16 11:37 | 44.94338 | 0.17784 | 41219 ft | 432 kts | 332° |
| 2026-04-16 11:37 | 44.99765 | 0.14119 | 41217 ft | 432 kts | 332° |
| 2026-04-16 11:38 | 45.05206 | 0.10437 | 41217 ft | 432 kts | 332° |
| 2026-04-16 11:38 | 45.10626 | 0.06762 | 41220 ft | 433 kts | 332° |
| 2026-04-16 11:39 | 45.16072 | 0.03062 | 41226 ft | 433 kts | 332° |
| 2026-04-16 11:39 | 45.21531 | -0.00655 | 41225 ft | 433 kts | 332° |
| 2026-04-16 11:40 | 45.26954 | -0.04356 | 41232 ft | 433 kts | 332° |
| 2026-04-16 11:40 | 45.32418 | -0.08092 | 41221 ft | 434 kts | 332° |
| 2026-04-16 11:41 | 45.37864 | -0.11824 | 41222 ft | 433 kts | 332° |
| 2026-04-16 11:41 | 45.43265 | -0.15533 | 41231 ft | 432 kts | 331° |
| 2026-04-16 11:42 | 45.48708 | -0.19279 | 41231 ft | 433 kts | 331° |
| 2026-04-16 11:42 | 45.54090 | -0.22990 | 41238 ft | 433 kts | 331° |
| 2026-04-16 11:43 | 45.59556 | -0.26769 | 41238 ft | 434 kts | 331° |
| 2026-04-16 11:43 | 45.64981 | -0.30573 | 41247 ft | 433 kts | 328° |
| 2026-04-16 11:44 | 45.69854 | -0.35544 | 41247 ft | 430 kts | 319° |
| 2026-04-16 11:44 | 45.74541 | -0.40840 | 41239 ft | 430 kts | 319° |
| 2026-04-16 11:45 | 45.79260 | -0.46176 | 41239 ft | 431 kts | 319° |
| 2026-04-16 11:45 | 45.83956 | -0.51496 | 41237 ft | 431 kts | 319° |
| 2026-04-16 11:46 | 45.88666 | -0.56842 | 41234 ft | 430 kts | 319° |
| 2026-04-16 11:46 | 45.93344 | -0.62162 | 41233 ft | 430 kts | 319° |
| 2026-04-16 11:47 | 45.98024 | -0.67495 | 41236 ft | 430 kts | 318° |
| 2026-04-16 11:47 | 46.02731 | -0.72871 | 41234 ft | 431 kts | 318° |
| 2026-04-16 11:48 | 46.07486 | -0.78313 | 41239 ft | 431 kts | 318° |
| 2026-04-16 11:48 | 46.12158 | -0.83671 | 41235 ft | 431 kts | 318° |
| 2026-04-16 11:49 | 46.16844 | -0.89058 | 41240 ft | 431 kts | 318° |
| 2026-04-16 11:49 | 46.21524 | -0.94449 | 41245 ft | 431 kts | 318° |
| 2026-04-16 11:50 | 46.26220 | -0.99872 | 41242 ft | 431 kts | 318° |
| 2026-04-16 11:50 | 46.30882 | -1.05266 | 41242 ft | 431 kts | 318° |
| 2026-04-16 11:51 | 46.35561 | -1.10695 | 41241 ft | 432 kts | 318° |
| 2026-04-16 11:51 | 46.40239 | -1.16133 | 41241 ft | 432 kts | 318° |
| 2026-04-16 11:52 | 46.44928 | -1.21595 | 41244 ft | 432 kts | 317° |
| 2026-04-16 11:52 | 46.49586 | -1.27034 | 41243 ft | 432 kts | 317° |
| 2026-04-16 11:53 | 46.54297 | -1.32548 | 41247 ft | 432 kts | 317° |
| 2026-04-16 11:53 | 46.58978 | -1.37974 | 41256 ft | 434 kts | 321° |
| 2026-04-16 11:54 | 46.64310 | -1.42226 | 41242 ft | 440 kts | 330° |
| 2026-04-16 11:54 | 46.69825 | -1.46129 | 41257 ft | 440 kts | 330° |
| 2026-04-16 11:55 | 46.75321 | -1.50030 | 41254 ft | 441 kts | 330° |
| 2026-04-16 11:55 | 46.80851 | -1.53963 | 41247 ft | 441 kts | 330° |
| 2026-04-16 11:56 | 46.86497 | -1.57444 | 41247 ft | 447 kts | 340° |
| 2026-04-16 11:56 | 46.92671 | -1.58924 | 41251 ft | 454 kts | 352° |
| 2026-04-16 11:57 | 46.98967 | -1.59558 | 41249 ft | 455 kts | 352° |
| 2026-04-16 11:57 | 47.05325 | -1.60207 | 41237 ft | 455 kts | 352° |
| 2026-04-16 11:58 | 47.11491 | -1.61799 | 41234 ft | 447 kts | 339° |
| 2026-04-16 11:58 | 47.17052 | -1.65414 | 41241 ft | 438 kts | 324° |
| 2026-04-16 11:59 | 47.21835 | -1.70843 | 41226 ft | 431 kts | 311° |
| 2026-04-16 11:59 | 47.25860 | -1.77335 | 41224 ft | 429 kts | 308° |
| 2026-04-16 12:00 | 47.29828 | -1.83877 | 41230 ft | 428 kts | 308° |
| 2026-04-16 12:00 | 47.33808 | -1.90454 | 41232 ft | 428 kts | 308° |
| 2026-04-16 12:01 | 47.37792 | -1.97052 | 41232 ft | 429 kts | 308° |
| 2026-04-16 12:01 | 47.41761 | -2.03642 | 41231 ft | 429 kts | 308° |
| 2026-04-16 12:02 | 47.42736 | -2.05263 | 41231 ft | 430 kts | 308° |
| 2026-04-16 12:02 | 47.42829 | -2.05418 | 41231 ft | 430 kts | 308° |
| 2026-04-16 12:03 | 47.45437 | -2.09761 | 41075 ft | 435 kts | 307° |
| 2026-04-16 12:03 | 47.46528 | -2.11587 | 40824 ft | 440 kts | 307° |
| 2026-04-16 12:03 | 47.47926 | -2.13924 | 40446 ft | 440 kts | 307° |
| 2026-04-16 12:04 | 47.48540 | -2.14951 | 40220 ft | 440 kts | 307° |
| 2026-04-16 12:04 | 47.50552 | -2.18314 | 39697 ft | 432 kts | 307° |
| 2026-04-16 12:04 | 47.52475 | -2.21646 | 39095 ft | 428 kts | 305° |
| 2026-04-16 12:04 | 47.55025 | -2.26162 | 38358 ft | 428 kts | 305° |
| 2026-04-16 12:05 | 47.56282 | -2.28388 | 37987 ft | 427 kts | 305° |
| 2026-04-16 12:05 | 47.58189 | -2.31767 | 37416 ft | 427 kts | 305° |
| 2026-04-16 12:05 | 47.60066 | -2.35097 | 36859 ft | 427 kts | 305° |
| 2026-04-16 12:05 | 47.62604 | -2.39605 | 36096 ft | 428 kts | 305° |
| 2026-04-16 12:06 | 47.64502 | -2.42980 | 35539 ft | 428 kts | 305° |
| 2026-04-16 12:06 | 47.65781 | -2.45257 | 35157 ft | 429 kts | 305° |
| 2026-04-16 12:06 | 47.67689 | -2.48657 | 34583 ft | 430 kts | 305° |
| 2026-04-16 12:06 | 47.69635 | -2.51986 | 34033 ft | 433 kts | 307° |
| 2026-04-16 12:07 | 47.71671 | -2.55315 | 33418 ft | 433 kts | 308° |
| 2026-04-16 12:07 | 47.73674 | -2.58593 | 32849 ft | 430 kts | 308° |
| 2026-04-16 12:07 | 47.76342 | -2.62964 | 32095 ft | 426 kts | 308° |
| 2026-04-16 12:07 | 47.77659 | -2.65125 | 31713 ft | 424 kts | 307° |
| 2026-04-16 12:08 | 47.80258 | -2.69395 | 30977 ft | 419 kts | 307° |
| 2026-04-16 12:08 | 47.82219 | -2.72623 | 30409 ft | 415 kts | 308° |
| 2026-04-16 12:08 | 47.84135 | -2.75778 | 29863 ft | 411 kts | 307° |
| 2026-04-16 12:08 | 47.86014 | -2.78878 | 29315 ft | 408 kts | 307° |
| 2026-04-16 12:09 | 47.87276 | -2.80961 | 28958 ft | 405 kts | 307° |
| 2026-04-16 12:09 | 47.89163 | -2.84081 | 28418 ft | 402 kts | 307° |
| 2026-04-16 12:09 | 47.91625 | -2.88158 | 27712 ft | 399 kts | 307° |
| 2026-04-16 12:09 | 47.93482 | -2.91235 | 27197 ft | 395 kts | 307° |
| 2026-04-16 12:10 | 47.95156 | -2.94408 | 26666 ft | 386 kts | 297° |
| 2026-04-16 12:10 | 47.95921 | -2.96781 | 26298 ft | 379 kts | 287° |
| 2026-04-16 12:10 | 47.96457 | -3.00577 | 25778 ft | 371 kts | 272° |
| 2026-04-16 12:10 | 47.96495 | -3.04366 | 25247 ft | 368 kts | 268° |
| 2026-04-16 12:11 | 47.96478 | -3.09444 | 24616 ft | 366 kts | 269° |
| 2026-04-16 12:11 | 47.96467 | -3.13192 | 24153 ft | 364 kts | 268° |
| 2026-04-16 12:11 | 47.96455 | -3.16961 | 23659 ft | 362 kts | 269° |
| 2026-04-16 12:11 | 47.96443 | -3.20694 | 23189 ft | 360 kts | 268° |
| 2026-04-16 12:12 | 47.96429 | -3.24405 | 22697 ft | 358 kts | 268° |
| 2026-04-16 12:12 | 47.96416 | -3.28067 | 22244 ft | 355 kts | 268° |
| 2026-04-16 12:12 | 47.96401 | -3.31709 | 21766 ft | 354 kts | 269° |
| 2026-04-16 12:12 | 47.96390 | -3.34170 | 21461 ft | 352 kts | 268° |
| 2026-04-16 12:13 | 47.96373 | -3.37775 | 20993 ft | 350 kts | 268° |
| 2026-04-16 12:13 | 47.96350 | -3.42571 | 20386 ft | 347 kts | 268° |
| 2026-04-16 12:13 | 47.96331 | -3.46166 | 19911 ft | 345 kts | 268° |
| 2026-04-16 12:13 | 47.96311 | -3.49715 | 19475 ft | 342 kts | 268° |
| 2026-04-16 12:14 | 47.96298 | -3.52063 | 19174 ft | 341 kts | 268° |
| 2026-04-16 12:14 | 47.96269 | -3.56750 | 18573 ft | 338 kts | 268° |
| 2026-04-16 12:14 | 47.96247 | -3.60220 | 18115 ft | 336 kts | 268° |
| 2026-04-16 12:14 | 47.96224 | -3.63656 | 17690 ft | 333 kts | 268° |
| 2026-04-16 12:15 | 47.96258 | -3.67137 | 17234 ft | 334 kts | 274° |
| 2026-04-16 12:15 | 47.96788 | -3.70495 | 16467 ft | 341 kts | 289° |
| 2026-04-16 12:15 | 47.97997 | -3.73491 | 16031 ft | 338 kts | 306° |
| 2026-04-16 12:15 | 47.99739 | -3.75828 | 15426 ft | 343 kts | 323° |
| 2026-04-16 12:16 | 48.01923 | -3.77280 | 14839 ft | 346 kts | 340° |
| 2026-04-16 12:16 | 48.04235 | -3.78163 | 14429 ft | 345 kts | 341° |
| 2026-04-16 12:16 | 48.06572 | -3.79056 | 13962 ft | 347 kts | 341° |
| 2026-04-16 12:16 | 48.08899 | -3.79949 | 13510 ft | 346 kts | 342° |
| 2026-04-16 12:17 | 48.11230 | -3.80843 | 13034 ft | 344 kts | 342° |
| 2026-04-16 12:17 | 48.13531 | -3.81726 | 12594 ft | 342 kts | 342° |
| 2026-04-16 12:17 | 48.15078 | -3.82320 | 12284 ft | 341 kts | 342° |
| 2026-04-16 12:17 | 48.18109 | -3.83484 | 11678 ft | 339 kts | 342° |
| 2026-04-16 12:18 | 48.20384 | -3.84359 | 11246 ft | 337 kts | 342° |
| 2026-04-16 12:18 | 48.22667 | -3.85238 | 10789 ft | 337 kts | 342° |
| 2026-04-16 12:18 | 48.24931 | -3.86110 | 10336 ft | 335 kts | 342° |
| 2026-04-16 12:18 | 48.26431 | -3.86688 | 10041 ft | 334 kts | 342° |
| 2026-04-16 12:19 | 48.29393 | -3.87830 | 9450 ft | 331 kts | 342° |
| 2026-04-16 12:19 | 48.31632 | -3.88694 | 9006 ft | 328 kts | 342° |
| 2026-04-16 12:19 | 48.33825 | -3.89541 | 8580 ft | 326 kts | 342° |
| 2026-04-16 12:19 | 48.35997 | -3.90381 | 8148 ft | 324 kts | 342° |
| 2026-04-16 12:20 | 48.38160 | -3.91218 | 7726 ft | 321 kts | 342° |
| 2026-04-16 12:20 | 48.40334 | -3.92060 | 7299 ft | 319 kts | 342° |
| 2026-04-16 12:20 | 48.42459 | -3.92884 | 6870 ft | 316 kts | 342° |
| 2026-04-16 12:20 | 48.44556 | -3.93706 | 6414 ft | 305 kts | 340° |
| 2026-04-16 12:21 | 48.45824 | -3.94472 | 6188 ft | 288 kts | 327° |
| 2026-04-16 12:21 | 48.47680 | -3.96930 | 5989 ft | 250 kts | 303° |
| 2026-04-16 12:21 | 48.48616 | -3.99092 | 5538 ft | 243 kts | 296° |
| 2026-04-16 12:21 | 48.49184 | -4.00550 | 5181 ft | 242 kts | 296° |
| 2026-04-16 12:22 | 48.50296 | -4.03386 | 4746 ft | 236 kts | 296° |
| 2026-04-16 12:22 | 48.51136 | -4.05536 | 4413 ft | 237 kts | 296° |
| 2026-04-16 12:22 | 48.51671 | -4.06964 | 4220 ft | 231 kts | 291° |
| 2026-04-16 12:22 | 48.51776 | -4.09936 | 3944 ft | 202 kts | 251° |
| 2026-04-16 12:23 | 48.51403 | -4.11920 | 3972 ft | 198 kts | 253° |
| 2026-04-16 12:23 | 48.51029 | -4.13897 | 3839 ft | 193 kts | 250° |
| 2026-04-16 12:23 | 48.50631 | -4.15761 | 3615 ft | 181 kts | 249° |
| 2026-04-16 12:23 | 48.50246 | -4.17511 | 3390 ft | 174 kts | 249° |
| 2026-04-16 12:24 | 48.49860 | -4.19240 | 3159 ft | 174 kts | 249° |
| 2026-04-16 12:24 | 48.49475 | -4.20957 | 2934 ft | 174 kts | 249° |
| 2026-04-16 12:24 | 48.49095 | -4.22657 | 2709 ft | 169 kts | 249° |
| 2026-04-16 12:24 | 48.48732 | -4.24287 | 2496 ft | 160 kts | 248° |
| 2026-04-16 12:25 | 48.48382 | -4.25850 | 2283 ft | 158 kts | 248° |
| 2026-04-16 12:25 | 48.48028 | -4.27423 | 2072 ft | 160 kts | 248° |
| 2026-04-16 12:25 | 48.47668 | -4.29024 | 1862 ft | 160 kts | 248° |
| 2026-04-16 12:25 | 48.47316 | -4.30593 | 1648 ft | 153 kts | 248° |
| 2026-04-16 12:26 | 48.47003 | -4.32008 | 1472 ft | 131 kts | 248° |
| 2026-04-16 12:26 | 48.46731 | -4.33233 | 1317 ft | 120 kts | 248° |
| 2026-04-16 12:26 | 48.46469 | -4.34391 | 1150 ft | 116 kts | 247° |
| 2026-04-16 12:26 | 48.46206 | -4.35543 | 995 ft | 117 kts | 247° |
| 2026-04-16 12:27 | 48.45950 | -4.36710 | 830 ft | 115 kts | 248° |
| 2026-04-16 12:27 | 48.45696 | -4.37847 | 675 ft | 116 kts | 247° |
| 2026-04-16 12:27 | 48.45433 | -4.39003 | 507 ft | 117 kts | 248° |
| 2026-04-16 12:27 | 48.45168 | -4.40163 | 353 ft | 117 kts | 248° |
| 2026-04-16 12:28 | 48.44928 | -4.41226 | 330 ft | 93 kts | 250° |
| 2026-04-16 12:28 | 48.44775 | -4.41902 | 318 ft | 50 kts | 252° |
| 2026-04-16 12:28 | 48.44706 | -4.42155 | 316 ft | 14 kts | 214° |
| 2026-04-16 12:28 | 48.44622 | -4.42128 | 316 ft | 9 kts | 162° |
| 2026-04-16 12:29 | 48.44576 | -4.42077 | 316 ft | 10 kts | 107° |
| 2026-04-16 12:29 | 48.44597 | -4.41929 | 317 ft | 17 kts | 74° |
| 2026-04-16 12:29 | 48.44634 | -4.41761 | 319 ft | 16 kts | 72° |
| 2026-04-16 12:29 | 48.44656 | -4.41667 | 319 ft | 7 kts | 75° |
| 2026-04-16 12:30 | 48.44614 | -4.41613 | 319 ft | 5 kts | 162° |
| 2026-04-16 12:30 | 48.44601 | -4.41606 | 319 ft | 0 kts | 162° |